Wetterdaten: Woche 18.05.09 - 24.05.09 (KW21)
Datum Zeit Temperatur Luftfeuchte Luftdruck Niederschlag Wind Richtung Sonnenschein Solar Taupunkt Windchill Windben
18.05.2009 00:00 13.3 C 92 % 1017.6 hPa 0.0 l/m 17.6 km/h (3 Bft) W 0.00 h 0 W/m 12.1 C 13.3 C 27.3 km/h (4 Bft)
18.05.2009 01:00 12.9 C 89 % 1018.7 hPa 0.8 l/m 8.7 km/h (2 Bft) W 0.00 h 0 W/m 11.1 C 12.9 C 14.4 km/h (3 Bft)
18.05.2009 02:00 12.7 C 91 % 1019.1 hPa 0.8 l/m 1.4 km/h (1 Bft) W 0.00 h 0 W/m 11.2 C 12.7 C 3.5 km/h (1 Bft)
18.05.2009 03:00 12.1 C 91 % 1019.2 hPa 0.0 l/m 3.3 km/h (1 Bft) SO 0.00 h 0 W/m 10.6 C 12.1 C 5.5 km/h (1 Bft)
18.05.2009 04:00 12.0 C 90 % 1019.3 hPa 0.0 l/m 1.8 km/h (1 Bft) S-SO 0.00 h 0 W/m 10.4 C 12.0 C 3.7 km/h (1 Bft)
18.05.2009 05:00 11.8 C 91 % 1018.9 hPa 0.0 l/m 0.4 km/h (0 Bft) S-SO 0.00 h 5 W/m 10.3 C 11.8 C 1.3 km/h (1 Bft)
18.05.2009 06:00 11.8 C 93 % 1019.4 hPa 0.4 l/m 0.3 km/h (0 Bft) O-NO 0.00 h 22 W/m 10.6 C 11.8 C 0.9 km/h (0 Bft)
18.05.2009 07:00 12.2 C 94 % 1019.7 hPa 0.0 l/m 0.0 km/h (0 Bft) N 0.00 h 61 W/m 11.2 C 12.2 C 0.1 km/h (0 Bft)
18.05.2009 08:00 12.7 C 95 % 1020.1 hPa 0.0 l/m 0.1 km/h (0 Bft) O-NO 0.00 h 86 W/m 11.9 C 12.7 C 0.3 km/h (0 Bft)
18.05.2009 09:00 13.3 C 95 % 1020.4 hPa 0.0 l/m 0.0 km/h (0 Bft) O-NO 0.00 h 174 W/m 12.4 C 13.3 C 0.2 km/h (0 Bft)
18.05.2009 10:00 14.3 C 91 % 1020.5 hPa 0.0 l/m 0.3 km/h (0 Bft) O-NO 0.03 h 254 W/m 12.8 C 14.3 C 1.3 km/h (1 Bft)
18.05.2009 11:00 15.0 C 82 % 1020.8 hPa 0.0 l/m 3.3 km/h (1 Bft) W 0.02 h 246 W/m 12.0 C 15.0 C 6.0 km/h (2 Bft)
18.05.2009 12:00 14.7 C 83 % 1021.0 hPa 0.0 l/m 1.1 km/h (0 Bft) W 0.00 h 146 W/m 11.9 C 14.7 C 3.0 km/h (1 Bft)
18.05.2009 13:00 14.9 C 84 % 1021.3 hPa 0.0 l/m 0.4 km/h (0 Bft) W 0.00 h 230 W/m 12.2 C 14.9 C 1.5 km/h (1 Bft)
18.05.2009 14:00 15.7 C 82 % 1021.1 hPa 0.0 l/m 1.2 km/h (1 Bft) W 0.07 h 401 W/m 12.7 C 15.7 C 3.0 km/h (1 Bft)
18.05.2009 15:00 16.7 C 75 % 1020.8 hPa 0.0 l/m 2.0 km/h (1 Bft) SO 0.32 h 409 W/m 12.2 C 16.7 C 4.3 km/h (1 Bft)
18.05.2009 16:00 17.4 C 68 % 1020.5 hPa 0.0 l/m 2.3 km/h (1 Bft) SO 0.57 h 432 W/m 11.5 C 17.4 C 5.4 km/h (1 Bft)
18.05.2009 17:00 17.9 C 63 % 1020.3 hPa 0.0 l/m 1.5 km/h (1 Bft) S-SO 0.08 h 245 W/m 10.7 C 17.9 C 4.1 km/h (1 Bft)
18.05.2009 18:00 17.9 C 63 % 1020.2 hPa 0.0 l/m 2.5 km/h (1 Bft) SO 0.33 h 211 W/m 10.6 C 17.9 C 4.9 km/h (1 Bft)
18.05.2009 19:00 17.8 C 61 % 1020.0 hPa 0.0 l/m 3.7 km/h (1 Bft) O-SO 0.92 h 185 W/m 10.2 C 17.8 C 5.9 km/h (2 Bft)
18.05.2009 20:00 17.0 C 63 % 1020.5 hPa 0.0 l/m 1.2 km/h (1 Bft) O-SO 0.40 h 41 W/m 9.9 C 17.0 C 2.6 km/h (1 Bft)
18.05.2009 21:00 15.1 C 75 % 1020.7 hPa 0.0 l/m 3.2 km/h (1 Bft) O-SO 0.00 h 0 W/m 10.7 C 15.1 C 4.7 km/h (1 Bft)
18.05.2009 22:00 13.7 C 82 % 1021.3 hPa 0.0 l/m 0.3 km/h (0 Bft) O-SO 0.00 h 0 W/m 10.6 C 13.7 C 0.8 km/h (0 Bft)
18.05.2009 23:00 12.5 C 86 % 1021.4 hPa 0.0 l/m 0.1 km/h (0 Bft) O-SO 0.00 h 0 W/m 10.3 C 12.5 C 0.6 km/h (0 Bft)
19.05.2009 00:00 11.3 C 89 % 1021.6 hPa 0.0 l/m 0.7 km/h (0 Bft) O-SO 0.00 h 0 W/m 9.6 C 11.3 C 1.3 km/h (1 Bft)
19.05.2009 01:00 10.4 C 91 % 1021.7 hPa 0.0 l/m 0.4 km/h (0 Bft) O-SO 0.00 h 0 W/m 8.9 C 10.4 C 0.8 km/h (0 Bft)
19.05.2009 02:00 9.6 C 93 % 1021.5 hPa 0.0 l/m 1.6 km/h (1 Bft) O-SO 0.00 h 0 W/m 8.5 C 9.6 C 2.6 km/h (1 Bft)
19.05.2009 03:00 8.9 C 94 % 1021.4 hPa 0.0 l/m 0.3 km/h (0 Bft) O-SO 0.00 h 0 W/m 8.0 C 8.9 C 0.6 km/h (0 Bft)
19.05.2009 04:00 8.3 C 95 % 1021.3 hPa 0.0 l/m 0.2 km/h (0 Bft) O-SO 0.00 h 0 W/m 7.6 C 8.3 C 0.8 km/h (0 Bft)
19.05.2009 05:00 7.8 C 96 % 1021.4 hPa 0.0 l/m 0.2 km/h (0 Bft) O-SO 0.02 h 7 W/m 7.2 C 7.8 C 0.5 km/h (0 Bft)
19.05.2009 06:00 7.5 C 96 % 1021.5 hPa 0.2 l/m 0.1 km/h (0 Bft) O-SO 0.00 h 26 W/m 7.0 C 7.5 C 0.7 km/h (0 Bft)
19.05.2009 07:00 8.8 C 98 % 1021.4 hPa 0.0 l/m 0.0 km/h (0 Bft) O-SO 0.78 h 177 W/m 8.5 C 8.8 C 0.4 km/h (0 Bft)
19.05.2009 08:00 12.9 C 93 % 1021.2 hPa 0.0 l/m 0.2 km/h (0 Bft) O-SO 1.00 h 353 W/m 11.8 C 12.9 C 1.0 km/h (0 Bft)
19.05.2009 09:00 16.8 C 74 % 1021.0 hPa 0.0 l/m 1.2 km/h (1 Bft) W 1.00 h 514 W/m 12.1 C 16.8 C 2.7 km/h (1 Bft)
19.05.2009 10:00 18.4 C 64 % 1021.0 hPa 0.0 l/m 2.7 km/h (1 Bft) SO 1.00 h 664 W/m 11.4 C 18.4 C 5.3 km/h (1 Bft)
19.05.2009 11:00 19.3 C 60 % 1020.9 hPa 0.0 l/m 2.7 km/h (1 Bft) O 1.00 h 777 W/m 11.4 C 19.3 C 5.6 km/h (1 Bft)
19.05.2009 12:00 20.7 C 57 % 1020.5 hPa 0.0 l/m 2.1 km/h (1 Bft) SO 1.00 h 852 W/m 12.0 C 20.7 C 4.6 km/h (1 Bft)
19.05.2009 13:00 21.8 C 56 % 1020.0 hPa 0.0 l/m 3.4 km/h (1 Bft) W 1.00 h 873 W/m 12.5 C 21.8 C 6.0 km/h (2 Bft)
19.05.2009 14:00 23.1 C 49 % 1019.4 hPa 0.0 l/m 2.9 km/h (1 Bft) W-NW 1.00 h 848 W/m 11.9 C 23.1 C 5.2 km/h (1 Bft)
19.05.2009 15:00 24.0 C 44 % 1018.9 hPa 0.0 l/m 3.7 km/h (1 Bft) S-SO 1.00 h 774 W/m 10.8 C 24.0 C 6.9 km/h (2 Bft)
19.05.2009 16:00 25.1 C 37 % 1018.4 hPa 0.0 l/m 3.6 km/h (1 Bft) W 1.00 h 667 W/m 9.4 C 25.1 C 6.7 km/h (2 Bft)
19.05.2009 17:00 25.5 C 35 % 1018.2 hPa 0.0 l/m 3.4 km/h (1 Bft) W 1.00 h 509 W/m 9.0 C 25.5 C 6.3 km/h (2 Bft)
19.05.2009 18:00 25.6 C 37 % 1018.2 hPa 0.0 l/m 5.7 km/h (1 Bft) N-NW 1.00 h 338 W/m 10.0 C 25.6 C 8.7 km/h (2 Bft)
19.05.2009 19:00 24.7 C 39 % 1018.5 hPa 0.0 l/m 5.0 km/h (1 Bft) W-NW 1.00 h 169 W/m 9.7 C 24.7 C 7.5 km/h (2 Bft)
19.05.2009 20:00 23.2 C 47 % 1018.8 hPa 0.0 l/m 2.5 km/h (1 Bft) W 0.40 h 38 W/m 11.2 C 23.2 C 4.6 km/h (1 Bft)
19.05.2009 21:00 19.5 C 61 % 1019.2 hPa 0.0 l/m 3.2 km/h (1 Bft) O 0.00 h 5 W/m 11.7 C 19.5 C 4.7 km/h (1 Bft)
19.05.2009 22:00 16.5 C 72 % 1020.2 hPa 0.0 l/m 3.4 km/h (1 Bft) O-SO 0.00 h 0 W/m 11.3 C 16.5 C 4.8 km/h (1 Bft)
19.05.2009 23:00 14.9 C 76 % 1020.7 hPa 0.0 l/m 1.5 km/h (1 Bft) O 0.00 h 0 W/m 10.8 C 14.9 C 2.7 km/h (1 Bft)
20.05.2009 00:00 13.3 C 81 % 1020.8 hPa 0.0 l/m 1.4 km/h (1 Bft) O-SO 0.00 h 0 W/m 10.2 C 13.3 C 2.4 km/h (1 Bft)
20.05.2009 01:00 12.3 C 85 % 1020.9 hPa 0.0 l/m 0.5 km/h (0 Bft) O-SO 0.00 h 0 W/m 9.8 C 12.3 C 0.8 km/h (0 Bft)
20.05.2009 02:00 11.4 C 87 % 1020.9 hPa 0.0 l/m 0.9 km/h (0 Bft) O-SO 0.00 h 0 W/m 9.4 C 11.4 C 1.7 km/h (1 Bft)
20.05.2009 03:00 10.8 C 90 % 1020.7 hPa 0.0 l/m 0.4 km/h (0 Bft) O-SO 0.00 h 0 W/m 9.2 C 10.8 C 0.9 km/h (0 Bft)
20.05.2009 04:00 10.2 C 92 % 1020.7 hPa 0.0 l/m 0.7 km/h (0 Bft) O-SO 0.00 h 0 W/m 8.9 C 10.2 C 1.7 km/h (1 Bft)
20.05.2009 05:00 9.7 C 92 % 1020.6 hPa 0.0 l/m 0.3 km/h (0 Bft) O 0.05 h 8 W/m 8.5 C 9.7 C 0.7 km/h (0 Bft)
20.05.2009 06:00 9.4 C 94 % 1020.8 hPa 0.0 l/m 0.5 km/h (0 Bft) O 0.00 h 29 W/m 8.4 C 9.4 C 1.3 km/h (1 Bft)
20.05.2009 07:00 10.6 C 96 % 1020.9 hPa 0.0 l/m 0.3 km/h (0 Bft) O 0.63 h 156 W/m 9.9 C 10.6 C 1.0 km/h (0 Bft)
20.05.2009 08:00 14.8 C 84 % 1021.0 hPa 0.0 l/m 0.7 km/h (0 Bft) N-NO 1.00 h 337 W/m 12.1 C 14.8 C 1.8 km/h (1 Bft)
20.05.2009 09:00 17.8 C 69 % 1021.1 hPa 0.0 l/m 1.4 km/h (1 Bft) N-NO 1.00 h 510 W/m 12.0 C 17.8 C 3.1 km/h (1 Bft)
20.05.2009 10:00 20.4 C 62 % 1020.7 hPa 0.0 l/m 2.7 km/h (1 Bft) NW 1.00 h 646 W/m 12.8 C 20.4 C 4.5 km/h (1 Bft)
20.05.2009 11:00 22.5 C 55 % 1020.2 hPa 0.0 l/m 2.6 km/h (1 Bft) W-NW 1.00 h 778 W/m 12.9 C 22.5 C 4.6 km/h (1 Bft)
20.05.2009 12:00 24.5 C 51 % 1019.6 hPa 0.0 l/m 2.7 km/h (1 Bft) W-NW 1.00 h 842 W/m 13.8 C 24.5 C 5.0 km/h (1 Bft)
20.05.2009 13:00 25.6 C 48 % 1018.9 hPa 0.0 l/m 3.5 km/h (1 Bft) W-NW 1.00 h 867 W/m 13.8 C 25.6 C 6.0 km/h (2 Bft)
20.05.2009 14:00 27.0 C 42 % 1018.0 hPa 0.0 l/m 3.7 km/h (1 Bft) W-NW 1.00 h 825 W/m 12.8 C 27.0 C 6.0 km/h (2 Bft)
20.05.2009 15:00 27.2 C 36 % 1017.7 hPa 0.0 l/m 2.0 km/h (1 Bft) O-SO 0.97 h 709 W/m 10.6 C 27.2 C 4.3 km/h (1 Bft)
20.05.2009 16:00 28.5 C 30 % 1017.1 hPa 0.0 l/m 3.3 km/h (1 Bft) W 1.00 h 667 W/m 8.9 C 28.5 C 6.3 km/h (2 Bft)
20.05.2009 17:00 27.8 C 29 % 1016.7 hPa 0.0 l/m 1.2 km/h (1 Bft) W 1.00 h 494 W/m 8.2 C 27.8 C 3.3 km/h (1 Bft)
20.05.2009 18:00 27.4 C 29 % 1016.4 hPa 0.0 l/m 0.9 km/h (0 Bft) SO 1.00 h 340 W/m 7.5 C 27.4 C 2.5 km/h (1 Bft)
20.05.2009 19:00 26.4 C 34 % 1015.8 hPa 0.0 l/m 2.4 km/h (1 Bft) O-SO 0.90 h 164 W/m 9.0 C 26.4 C 4.0 km/h (1 Bft)
20.05.2009 20:00 24.4 C 46 % 1015.5 hPa 0.0 l/m 2.9 km/h (1 Bft) O-SO 0.02 h 31 W/m 11.8 C 24.4 C 4.6 km/h (1 Bft)
20.05.2009 21:00 20.3 C 62 % 1015.9 hPa 0.0 l/m 2.8 km/h (1 Bft) O-SO 0.00 h 0 W/m 12.7 C 20.3 C 4.0 km/h (1 Bft)
20.05.2009 22:00 18.3 C 68 % 1016.2 hPa 0.0 l/m 0.9 km/h (0 Bft) O-SO 0.00 h 0 W/m 12.2 C 18.3 C 2.2 km/h (1 Bft)
20.05.2009 23:00 16.7 C 72 % 1015.8 hPa 0.0 l/m 1.5 km/h (1 Bft) O-SO 0.00 h 0 W/m 11.7 C 16.7 C 2.7 km/h (1 Bft)
21.05.2009 00:00 15.2 C 78 % 1015.5 hPa 0.0 l/m 1.8 km/h (1 Bft) SO 0.00 h 0 W/m 11.4 C 15.2 C 2.9 km/h (1 Bft)
21.05.2009 01:00 14.2 C 80 % 1015.2 hPa 0.0 l/m 0.4 km/h (0 Bft) SO 0.00 h 0 W/m 10.8 C 14.2 C 1.2 km/h (1 Bft)
21.05.2009 02:00 13.6 C 83 % 1015.1 hPa 0.0 l/m 1.1 km/h (1 Bft) SO 0.00 h 0 W/m 10.8 C 13.6 C 2.1 km/h (1 Bft)
21.05.2009 03:00 13.3 C 85 % 1015.0 hPa 0.0 l/m 1.8 km/h (1 Bft) O-SO 0.00 h 0 W/m 10.8 C 13.3 C 2.9 km/h (1 Bft)
21.05.2009 04:00 12.9 C 86 % 1014.8 hPa 0.0 l/m 1.6 km/h (1 Bft) O-SO 0.00 h 0 W/m 10.6 C 12.9 C 2.8 km/h (1 Bft)
21.05.2009 05:00 12.6 C 87 % 1014.9 hPa 0.0 l/m 0.9 km/h (0 Bft) O-NO 0.00 h 7 W/m 10.5 C 12.6 C 1.8 km/h (1 Bft)
21.05.2009 06:00 12.8 C 89 % 1015.6 hPa 0.0 l/m 1.0 km/h (0 Bft) O-SO 0.00 h 13 W/m 11.1 C 12.8 C 2.1 km/h (1 Bft)
21.05.2009 07:00 13.2 C 89 % 1015.9 hPa 0.0 l/m 1.9 km/h (1 Bft) SO 0.00 h 59 W/m 11.5 C 13.2 C 3.2 km/h (1 Bft)
21.05.2009 08:00 14.5 C 87 % 1015.8 hPa 0.0 l/m 1.3 km/h (1 Bft) W 0.00 h 141 W/m 12.3 C 14.5 C 2.6 km/h (1 Bft)
21.05.2009 09:00 15.5 C 82 % 1015.9 hPa 0.0 l/m 0.0 km/h (0 Bft) W 0.03 h 145 W/m 12.5 C 15.5 C 0.1 km/h (0 Bft)
21.05.2009 10:00 18.7 C 72 % 1015.6 hPa 0.0 l/m 1.8 km/h (1 Bft) W-NW 0.78 h 533 W/m 13.6 C 18.7 C 3.8 km/h (1 Bft)
21.05.2009 11:00 21.6 C 64 % 1014.9 hPa 0.0 l/m 1.8 km/h (1 Bft) W-NW 0.95 h 629 W/m 14.6 C 21.6 C 3.7 km/h (1 Bft)
21.05.2009 12:00 24.4 C 56 % 1014.5 hPa 0.0 l/m 1.6 km/h (1 Bft) S 1.00 h 826 W/m 14.9 C 24.4 C 3.9 km/h (1 Bft)
21.05.2009 13:00 25.8 C 47 % 1013.4 hPa 0.0 l/m 2.5 km/h (1 Bft) O-SO 1.00 h 863 W/m 13.6 C 25.8 C 5.0 km/h (1 Bft)
21.05.2009 14:00 27.1 C 40 % 1012.6 hPa 0.0 l/m 3.1 km/h (1 Bft) S-SO 0.77 h 730 W/m 12.4 C 27.1 C 6.0 km/h (2 Bft)
21.05.2009 15:00 25.5 C 48 % 1012.5 hPa 0.2 l/m 4.3 km/h (1 Bft) W-NW 0.15 h 194 W/m 13.6 C 25.5 C 7.4 km/h (2 Bft)
21.05.2009 16:00 25.5 C 56 % 1012.0 hPa 0.0 l/m 6.1 km/h (2 Bft) N-NW 0.67 h 509 W/m 16.0 C 25.5 C 10.0 km/h (2 Bft)
21.05.2009 17:00 24.9 C 55 % 1011.8 hPa 0.0 l/m 3.3 km/h (1 Bft) W 0.40 h 252 W/m 15.3 C 24.9 C 6.1 km/h (2 Bft)
21.05.2009 18:00 24.9 C 55 % 1011.6 hPa 0.0 l/m 5.6 km/h (1 Bft) W-NW 0.22 h 178 W/m 15.2 C 24.9 C 8.9 km/h (2 Bft)
21.05.2009 19:00 23.2 C 53 % 1012.4 hPa 0.0 l/m 6.1 km/h (2 Bft) W-NW 0.00 h 84 W/m 13.2 C 23.2 C 9.7 km/h (2 Bft)
21.05.2009 20:00 21.8 C 58 % 1012.5 hPa 0.0 l/m 0.8 km/h (0 Bft) W 0.00 h 25 W/m 13.2 C 21.8 C 2.4 km/h (1 Bft)
21.05.2009 21:00 20.1 C 66 % 1013.0 hPa 0.0 l/m 1.7 km/h (1 Bft) O-SO 0.00 h 0 W/m 13.5 C 20.1 C 3.4 km/h (1 Bft)
21.05.2009 22:00 18.7 C 75 % 1013.9 hPa 0.0 l/m 2.9 km/h (1 Bft) O-SO 0.00 h 0 W/m 14.2 C 18.7 C 5.3 km/h (1 Bft)
21.05.2009 23:00 17.6 C 79 % 1014.7 hPa 5.8 l/m 6.4 km/h (2 Bft) O-SO 0.00 h 0 W/m 13.9 C 17.6 C 11.1 km/h (2 Bft)
22.05.2009 00:00 15.5 C 92 % 1014.0 hPa 0.2 l/m 3.8 km/h (1 Bft) O-SO 0.00 h 0 W/m 14.2 C 15.5 C 6.5 km/h (2 Bft)
22.05.2009 01:00 14.9 C 94 % 1013.8 hPa 0.0 l/m 0.5 km/h (0 Bft) SO 0.00 h 0 W/m 14.0 C 14.9 C 1.2 km/h (1 Bft)
22.05.2009 02:00 14.6 C 96 % 1013.0 hPa 0.0 l/m 1.0 km/h (0 Bft) NW 0.00 h 0 W/m 13.9 C 14.6 C 2.1 km/h (1 Bft)
22.05.2009 03:00 14.7 C 97 % 1013.6 hPa 0.6 l/m 2.8 km/h (1 Bft) N-NW 0.00 h 0 W/m 14.2 C 14.7 C 5.0 km/h (1 Bft)
22.05.2009 04:00 14.4 C 97 % 1013.4 hPa 0.0 l/m 0.4 km/h (0 Bft) O-NO 0.00 h 0 W/m 13.9 C 14.4 C 1.2 km/h (1 Bft)
22.05.2009 05:00 14.3 C 97 % 1013.7 hPa 0.4 l/m 1.0 km/h (0 Bft) SO 0.00 h 0 W/m 13.9 C 14.3 C 2.0 km/h (1 Bft)
22.05.2009 06:00 14.2 C 98 % 1013.8 hPa 0.0 l/m 1.5 km/h (1 Bft) SO 0.00 h 17 W/m 13.9 C 14.2 C 3.0 km/h (1 Bft)
22.05.2009 07:00 14.7 C 99 % 1014.0 hPa 0.0 l/m 1.4 km/h (1 Bft) N-NW 0.05 h 66 W/m 14.5 C 14.7 C 2.9 km/h (1 Bft)
22.05.2009 08:00 15.6 C 99 % 1014.4 hPa 0.0 l/m 0.4 km/h (0 Bft) O-SO 0.23 h 181 W/m 15.5 C 15.6 C 1.2 km/h (1 Bft)
22.05.2009 09:00 17.0 C 96 % 1014.6 hPa 0.0 l/m 0.4 km/h (0 Bft) O-SO 0.45 h 324 W/m 16.3 C 17.0 C 1.3 km/h (1 Bft)
22.05.2009 10:00 18.0 C 91 % 1015.0 hPa 0.2 l/m 1.4 km/h (1 Bft) W-NW 0.25 h 329 W/m 16.5 C 18.0 C 3.0 km/h (1 Bft)
22.05.2009 11:00 18.3 C 89 % 1015.5 hPa 0.0 l/m 4.0 km/h (1 Bft) N 0.32 h 403 W/m 16.5 C 18.3 C 7.2 km/h (2 Bft)
22.05.2009 12:00 18.5 C 84 % 1015.8 hPa 0.0 l/m 7.5 km/h (2 Bft) W 0.25 h 412 W/m 15.9 C 18.5 C 12.7 km/h (3 Bft)
22.05.2009 13:00 19.5 C 79 % 1016.1 hPa 0.0 l/m 10.3 km/h (2 Bft) W 0.53 h 578 W/m 15.8 C 19.5 C 16.9 km/h (3 Bft)
22.05.2009 14:00 21.6 C 71 % 1015.8 hPa 0.0 l/m 10.2 km/h (2 Bft) W 0.93 h 750 W/m 16.0 C 21.6 C 16.4 km/h (3 Bft)
22.05.2009 15:00 22.2 C 64 % 1015.9 hPa 0.0 l/m 13.5 km/h (3 Bft) W 0.63 h 651 W/m 15.0 C 22.2 C 21.3 km/h (4 Bft)
22.05.2009 16:00 23.0 C 59 % 1015.8 hPa 0.0 l/m 15.2 km/h (3 Bft) W 0.82 h 621 W/m 14.6 C 23.0 C 23.4 km/h (4 Bft)
22.05.2009 17:00 23.0 C 57 % 1015.5 hPa 0.0 l/m 15.0 km/h (3 Bft) W 0.85 h 459 W/m 14.0 C 23.0 C 24.3 km/h (4 Bft)
22.05.2009 18:00 23.0 C 56 % 1015.5 hPa 0.0 l/m 14.5 km/h (3 Bft) W 1.00 h 349 W/m 13.8 C 23.0 C 22.7 km/h (4 Bft)
22.05.2009 19:00 22.8 C 56 % 1015.9 hPa 0.0 l/m 9.9 km/h (2 Bft) W-NW 1.00 h 196 W/m 13.5 C 22.8 C 16.0 km/h (3 Bft)
22.05.2009 20:00 21.5 C 57 % 1016.4 hPa 0.0 l/m 7.2 km/h (2 Bft) W 0.85 h 49 W/m 12.6 C 21.5 C 11.6 km/h (2 Bft)
22.05.2009 21:00 19.0 C 66 % 1017.1 hPa 0.0 l/m 3.9 km/h (1 Bft) W-NW 0.00 h 6 W/m 12.4 C 19.0 C 6.2 km/h (2 Bft)
22.05.2009 22:00 17.1 C 72 % 1017.8 hPa 0.0 l/m 2.0 km/h (1 Bft) O-SO 0.00 h 0 W/m 12.0 C 17.1 C 3.6 km/h (1 Bft)
22.05.2009 23:00 15.8 C 78 % 1018.2 hPa 0.0 l/m 0.1 km/h (0 Bft) O-SO 0.00 h 0 W/m 11.9 C 15.8 C 0.3 km/h (0 Bft)
23.05.2009 00:00 14.2 C 83 % 1018.6 hPa 0.0 l/m 0.0 km/h (0 Bft) W-SW 0.00 h 0 W/m 11.4 C 14.2 C 0.1 km/h (0 Bft)
23.05.2009 01:00 13.4 C 87 % 1018.5 hPa 0.0 l/m 0.7 km/h (0 Bft) W-SW 0.00 h 0 W/m 11.3 C 13.4 C 1.9 km/h (1 Bft)
23.05.2009 02:00 13.4 C 86 % 1018.0 hPa 0.0 l/m 0.5 km/h (0 Bft) W-SW 0.00 h 0 W/m 11.2 C 13.4 C 1.9 km/h (1 Bft)
23.05.2009 03:00 13.1 C 84 % 1017.7 hPa 0.0 l/m 0.1 km/h (0 Bft) W-SW 0.00 h 0 W/m 10.4 C 13.1 C 0.8 km/h (0 Bft)
23.05.2009 04:00 12.0 C 85 % 1017.4 hPa 0.0 l/m 0.3 km/h (0 Bft) W-SW 0.00 h 0 W/m 9.5 C 12.0 C 1.5 km/h (1 Bft)
23.05.2009 05:00 11.1 C 87 % 1017.5 hPa 0.0 l/m 0.1 km/h (0 Bft) W-SW 0.03 h 8 W/m 9.0 C 11.1 C 0.8 km/h (0 Bft)
23.05.2009 06:00 10.6 C 89 % 1017.6 hPa 0.0 l/m 0.5 km/h (0 Bft) O-NO 0.00 h 28 W/m 8.8 C 10.6 C 1.8 km/h (1 Bft)
23.05.2009 07:00 11.7 C 90 % 1018.0 hPa 0.0 l/m 0.5 km/h (0 Bft) O-NO 0.87 h 168 W/m 10.1 C 11.7 C 1.7 km/h (1 Bft)
23.05.2009 08:00 15.9 C 75 % 1017.9 hPa 0.0 l/m 0.7 km/h (0 Bft) O-NO 1.00 h 334 W/m 11.5 C 15.9 C 2.3 km/h (1 Bft)
23.05.2009 09:00 18.1 C 59 % 1017.8 hPa 0.0 l/m 2.4 km/h (1 Bft) SO 1.00 h 500 W/m 10.0 C 18.1 C 5.4 km/h (1 Bft)
23.05.2009 10:00 19.7 C 54 % 1017.4 hPa 0.0 l/m 4.4 km/h (1 Bft) O-SO 1.00 h 640 W/m 10.2 C 19.7 C 8.3 km/h (2 Bft)
23.05.2009 11:00 21.3 C 53 % 1017.1 hPa 0.0 l/m 6.3 km/h (2 Bft) O-SO 1.00 h 763 W/m 11.3 C 21.3 C 10.5 km/h (2 Bft)
23.05.2009 12:00 22.7 C 53 % 1016.7 hPa 0.0 l/m 6.4 km/h (2 Bft) O-SO 1.00 h 819 W/m 12.6 C 22.7 C 10.5 km/h (2 Bft)
23.05.2009 13:00 23.8 C 52 % 1016.4 hPa 0.0 l/m 3.9 km/h (1 Bft) O-SO 1.00 h 836 W/m 13.5 C 23.8 C 7.5 km/h (2 Bft)
23.05.2009 14:00 24.7 C 52 % 1015.8 hPa 0.0 l/m 6.7 km/h (2 Bft) O-SO 1.00 h 808 W/m 14.3 C 24.7 C 10.8 km/h (2 Bft)
23.05.2009 15:00 25.6 C 50 % 1015.4 hPa 0.0 l/m 5.7 km/h (1 Bft) O-SO 1.00 h 737 W/m 14.4 C 25.6 C 9.4 km/h (2 Bft)
23.05.2009 16:00 26.1 C 48 % 1015.0 hPa 0.0 l/m 5.6 km/h (1 Bft) O-SO 1.00 h 632 W/m 14.1 C 26.1 C 9.2 km/h (2 Bft)
23.05.2009 17:00 26.3 C 48 % 1014.6 hPa 0.0 l/m 6.7 km/h (2 Bft) O-SO 0.92 h 466 W/m 14.3 C 26.3 C 10.1 km/h (2 Bft)
23.05.2009 18:00 26.0 C 50 % 1014.7 hPa 0.0 l/m 4.1 km/h (1 Bft) O-SO 0.57 h 245 W/m 14.8 C 26.0 C 6.6 km/h (2 Bft)
23.05.2009 19:00 25.1 C 56 % 1015.0 hPa 0.0 l/m 0.9 km/h (0 Bft) O-SO 0.02 h 110 W/m 15.6 C 25.1 C 2.6 km/h (1 Bft)
23.05.2009 20:00 24.2 C 59 % 1015.4 hPa 0.0 l/m 1.6 km/h (1 Bft) O-SO 0.00 h 22 W/m 15.7 C 24.2 C 2.5 km/h (1 Bft)
23.05.2009 21:00 21.9 C 66 % 1015.4 hPa 0.0 l/m 1.2 km/h (1 Bft) SO 0.00 h 5 W/m 15.3 C 21.9 C 2.1 km/h (1 Bft)
23.05.2009 22:00 20.5 C 75 % 1016.0 hPa 0.0 l/m 0.8 km/h (0 Bft) O 0.00 h 0 W/m 15.9 C 20.5 C 1.6 km/h (1 Bft)
23.05.2009 23:00 19.2 C 80 % 1015.8 hPa 0.0 l/m 0.2 km/h (0 Bft) SO 0.00 h 0 W/m 15.6 C 19.2 C 0.7 km/h (0 Bft)
24.05.2009 00:00 18.3 C 82 % 1015.8 hPa 0.0 l/m 0.0 km/h (0 Bft) N 0.00 h 0 W/m 15.2 C 18.3 C 0.0 km/h (0 Bft)
24.05.2009 01:00 17.2 C 85 % 1015.8 hPa 0.0 l/m 0.0 km/h (0 Bft) N 0.00 h 0 W/m 14.8 C 17.2 C 0.0 km/h (0 Bft)
24.05.2009 02:00 16.9 C 86 % 1015.9 hPa 0.0 l/m 1.2 km/h (1 Bft) O 0.00 h 0 W/m 14.6 C 16.9 C 2.7 km/h (1 Bft)
24.05.2009 03:00 16.5 C 87 % 1016.2 hPa 0.0 l/m 1.1 km/h (1 Bft) O 0.00 h 0 W/m 14.4 C 16.5 C 2.2 km/h (1 Bft)
24.05.2009 04:00 16.1 C 89 % 1016.3 hPa 0.0 l/m 1.2 km/h (1 Bft) O-SO 0.00 h 0 W/m 14.3 C 16.1 C 2.1 km/h (1 Bft)
24.05.2009 05:00 15.9 C 90 % 1016.5 hPa 0.0 l/m 0.3 km/h (0 Bft) SO 0.00 h 5 W/m 14.3 C 15.9 C 0.7 km/h (0 Bft)
24.05.2009 06:00 15.9 C 92 % 1016.9 hPa 0.0 l/m 0.1 km/h (0 Bft) SO 0.00 h 23 W/m 14.6 C 15.9 C 0.4 km/h (0 Bft)
24.05.2009 07:00 16.7 C 93 % 1017.3 hPa 0.0 l/m 0.1 km/h (0 Bft) SO 0.00 h 93 W/m 15.5 C 16.7 C 0.6 km/h (0 Bft)
24.05.2009 08:00 18.1 C 91 % 1017.7 hPa 0.0 l/m 0.1 km/h (0 Bft) SO 0.15 h 177 W/m 16.6 C 18.1 C 0.8 km/h (0 Bft)
24.05.2009 09:00 21.5 C 79 % 1017.8 hPa 0.0 l/m 0.6 km/h (0 Bft) S-SO 0.78 h 439 W/m 17.7 C 21.5 C 2.1 km/h (1 Bft)
24.05.2009 10:00 25.6 C 67 % 1017.3 hPa 0.0 l/m 2.1 km/h (1 Bft) S-SO 1.00 h 621 W/m 19.0 C 25.6 C 5.0 km/h (1 Bft)
24.05.2009 11:00 27.8 C 60 % 1017.2 hPa 0.0 l/m 2.5 km/h (1 Bft) W 1.00 h 734 W/m 19.3 C 27.8 C 5.0 km/h (1 Bft)
24.05.2009 12:00 28.9 C 56 % 1017.0 hPa 0.0 l/m 3.0 km/h (1 Bft) W-NW 1.00 h 800 W/m 19.3 C 28.9 C 5.7 km/h (1 Bft)
24.05.2009 13:00 30.2 C 49 % 1017.0 hPa 0.0 l/m 3.1 km/h (1 Bft) W-NW 1.00 h 831 W/m 18.3 C 30.2 C 5.7 km/h (1 Bft)
24.05.2009 14:00 31.3 C 36 % 1016.8 hPa 0.0 l/m 6.4 km/h (2 Bft) W 1.00 h 811 W/m 14.3 C 31.3 C 9.7 km/h (2 Bft)
24.05.2009 15:00 32.3 C 35 % 1016.5 hPa 0.0 l/m 5.1 km/h (1 Bft) W 1.00 h 737 W/m 14.8 C 32.3 C 8.4 km/h (2 Bft)
24.05.2009 16:00 32.1 C 35 % 1016.2 hPa 0.0 l/m 7.0 km/h (2 Bft) W 1.00 h 625 W/m 14.5 C 32.1 C 10.6 km/h (2 Bft)
24.05.2009 17:00 32.3 C 39 % 1016.0 hPa 0.0 l/m 5.7 km/h (1 Bft) W 1.00 h 497 W/m 16.6 C 32.3 C 8.6 km/h (2 Bft)
24.05.2009 18:00 32.3 C 40 % 1015.8 hPa 0.0 l/m 3.2 km/h (1 Bft) W 1.00 h 379 W/m 16.8 C 32.3 C 5.3 km/h (1 Bft)
24.05.2009 19:00 30.8 C 46 % 1015.7 hPa 0.0 l/m 1.7 km/h (1 Bft) W-SW 1.00 h 166 W/m 17.9 C 30.8 C 3.7 km/h (1 Bft)
24.05.2009 20:00 28.5 C 55 % 1015.7 hPa 0.0 l/m 2.4 km/h (1 Bft) SO 0.33 h 45 W/m 18.6 C 28.5 C 3.6 km/h (1 Bft)
24.05.2009 21:00 25.1 C 65 % 1015.9 hPa 0.0 l/m 3.2 km/h (1 Bft) O-SO 0.00 h 6 W/m 18.1 C 25.1 C 4.8 km/h (1 Bft)
24.05.2009 22:00 22.7 C 73 % 1016.6 hPa 0.0 l/m 1.8 km/h (1 Bft) O-SO 0.00 h 0 W/m 17.6 C 22.7 C 2.7 km/h (1 Bft)
24.05.2009 23:00 21.1 C 79 % 1016.8 hPa 0.0 l/m 1.0 km/h (0 Bft) O-SO 0.00 h 0 W/m 17.2 C 21.1 C 2.1 km/h (1 Bft)
Min-Datum _ 19.05.09 20.05.09 21.05.09 - 18.05.09 - - - 20.05.09 19.05.09 18.05.09
_ Min-Zeit 06:27 16:50 17:45 - 02:04 - - - 17:24 06:27 02:04
Minimum _ 7.4 C 24 % 1011.3 hPa - 0.0 km/h (0 Bft) - - - 6.0 C 7.4 C 0.0 km/h (0 Bft)
Max-Datum _ 24.05.09 19.05.09 19.05.09 21.05.09 22.05.09 - 18.05.09 22.05.09 24.05.09 24.05.09 22.05.09
_ Max-Zeit 15:42 07:37 01:00 23:29 17:54 - 10:57 15:30 12:40 15:42 16:49
Maximum _ 32.6 C 99 % 1021.8 hPa 5.8 l/m 27.8 km/h
W (4 Bft)
- 0.02 h 970 W/m 21.3 C 32.6 C 40.0 km/h
W (6 Bft)
Durchschnitt _ 18.6 C 71 % 1017.4 hPa #9.6 l/m 2.7 km/h (1 Bft) O-SO #65:18 h 372 W/m 12.6 C 18.6 C 4.7 km/h (1 Bft)
© Kaiko 2009